createdAt,value
2019-04-16T00:02:31.542Z,2.20
2019-04-16T00:05:09.345Z,2.20
2019-04-16T00:07:41.067Z,2.10
2019-04-16T00:10:17.235Z,2.10
2019-04-16T00:12:50.999Z,2.00
2019-04-16T00:15:22.357Z,2.00
2019-04-16T00:17:51.738Z,1.90
2019-04-16T00:20:22.849Z,1.90
2019-04-16T00:25:32.550Z,1.80
2019-04-16T00:28:02.793Z,1.80
2019-04-16T00:30:35.754Z,1.80
2019-04-16T00:33:07.574Z,1.70
2019-04-16T00:35:57.519Z,1.70
2019-04-16T00:38:40.442Z,1.70
2019-04-16T00:41:06.043Z,1.60
2019-04-16T00:43:43.924Z,1.60
2019-04-16T00:46:12.556Z,1.60
2019-04-16T00:48:45.667Z,1.50
2019-04-16T00:51:16.770Z,1.50
2019-04-16T00:53:46.750Z,1.50
2019-04-16T00:56:20.471Z,1.40
2019-04-16T00:58:53.677Z,1.40
2019-04-16T01:01:25.370Z,1.40
2019-04-16T01:03:56.391Z,1.30
2019-04-16T01:06:27.535Z,1.30
2019-04-16T01:08:57.633Z,1.20
2019-04-16T01:11:27.733Z,1.20
2019-04-16T01:13:57.730Z,1.20
2019-04-16T01:16:50.905Z,1.20
2019-04-16T01:19:22.874Z,1.10
2019-04-16T01:21:53.993Z,1.10
2019-04-16T01:24:27.134Z,1.10
2019-04-16T01:26:59.106Z,1.10
2019-04-16T01:29:33.566Z,1.00
2019-04-16T01:32:10.661Z,1.00
2019-04-16T01:34:48.318Z,1.00
2019-04-16T01:37:25.810Z,1.00
2019-04-16T01:40:07.255Z,0.90
2019-04-16T01:42:38.360Z,0.90
2019-04-16T01:45:07.854Z,0.90
2019-04-16T01:47:39.322Z,0.90
2019-04-16T01:50:13.688Z,0.90
2019-04-16T01:52:43.742Z,0.80
2019-04-16T01:55:14.741Z,0.80
2019-04-16T01:57:49.524Z,0.80
2019-04-16T02:00:20.708Z,0.80
2019-04-16T02:02:53.381Z,0.70
2019-04-16T02:05:24.305Z,0.70
2019-04-16T02:07:56.332Z,0.60
2019-04-16T02:10:28.702Z,0.50
2019-04-16T02:12:59.600Z,0.40
2019-04-16T02:15:32.166Z,0.40
2019-04-16T02:18:06.215Z,0.40
2019-04-16T02:20:39.679Z,0.30
2019-04-16T02:23:13.356Z,0.30
2019-04-16T02:25:44.007Z,0.30
2019-04-16T02:28:16.518Z,0.20
2019-04-16T02:30:47.735Z,0.20
2019-04-16T02:33:20.303Z,0.20
2019-04-16T02:35:51.423Z,0.20
2019-04-16T02:38:24.119Z,0.20
2019-04-16T02:40:55.379Z,0.20
2019-04-16T02:43:28.755Z,0.20
2019-04-16T02:45:59.793Z,0.20
2019-04-16T02:48:34.928Z,0.10
2019-04-16T02:51:10.589Z,0.10
2019-04-16T02:53:48.816Z,0.10
2019-04-16T02:56:26.738Z,0.10
2019-04-16T02:58:59.531Z,0.00
2019-04-16T03:01:49.428Z,0.00
2019-04-16T03:04:26.721Z,0.00
2019-04-16T03:07:04.330Z,0.00
2019-04-16T03:09:39.742Z,-0.10
2019-04-16T03:12:10.246Z,-0.10
2019-04-16T03:14:43.872Z,-0.20
2019-04-16T03:17:39.433Z,-0.20
2019-04-16T03:20:10.967Z,-0.20
2019-04-16T03:22:43.144Z,-0.20
2019-04-16T03:25:15.916Z,-0.20
2019-04-16T03:28:09.499Z,-0.20
2019-04-16T03:30:42.838Z,-0.20
2019-04-16T03:33:15.770Z,-0.30
2019-04-16T03:35:48.297Z,-0.40
2019-04-16T03:38:20.849Z,-0.40
2019-04-16T03:43:31.847Z,-0.50
2019-04-16T03:45:58.533Z,-0.50
2019-04-16T03:48:29.619Z,-0.60
2019-04-16T03:51:07.821Z,-0.60
2019-04-16T03:53:38.235Z,-0.60
2019-04-16T03:56:10.977Z,-0.60
2019-04-16T03:58:43.326Z,-0.70
2019-04-16T04:01:18.625Z,-0.70
2019-04-16T04:03:48.928Z,-0.70
2019-04-16T04:06:20.956Z,-0.70
2019-04-16T04:08:53.318Z,-0.70
2019-04-16T04:11:24.772Z,-0.70
2019-04-16T04:13:57.316Z,-0.70
2019-04-16T04:16:33.257Z,-0.70
2019-04-16T04:19:02.176Z,-0.70
2019-04-16T04:21:34.239Z,-0.70
2019-04-16T04:24:05.905Z,-0.70
2019-04-16T04:26:42.025Z,-0.70
2019-04-16T04:29:13.329Z,-0.70
2019-04-16T04:31:43.365Z,-0.70
2019-04-16T04:34:16.944Z,-0.70
2019-04-16T04:36:46.420Z,-0.70
2019-04-16T04:39:19.818Z,-0.70
2019-04-16T04:41:52.685Z,-0.60
2019-04-16T04:44:24.268Z,-0.60
2019-04-16T04:46:56.750Z,-0.50
2019-04-16T04:49:30.520Z,-0.50
2019-04-16T04:52:07.394Z,-0.40
2019-04-16T04:54:38.417Z,-0.40
2019-04-16T04:57:09.552Z,-0.40
2019-04-16T04:59:41.935Z,-0.30
2019-04-16T05:02:15.464Z,-0.20
2019-04-16T05:04:53.376Z,-0.10
2019-04-16T05:07:29.068Z,0.00
2019-04-16T05:10:04.560Z,0.20
2019-04-16T05:12:34.397Z,0.40
2019-04-16T05:15:07.626Z,0.50
2019-04-16T05:17:39.982Z,0.70
2019-04-16T05:20:15.023Z,1.00
2019-04-16T05:22:44.240Z,1.10
2019-04-16T05:25:16.809Z,1.30
2019-04-16T05:27:49.847Z,1.50
2019-04-16T05:30:22.091Z,1.60
2019-04-16T05:32:52.356Z,1.80
2019-04-16T05:35:25.039Z,2.10
2019-04-16T05:37:58.070Z,2.40
2019-04-16T05:40:35.103Z,2.50
2019-04-16T05:43:05.917Z,2.70
2019-04-16T05:45:37.847Z,2.80
2019-04-16T05:48:10.413Z,3.00
2019-04-16T05:50:43.994Z,3.30
2019-04-16T05:53:16.078Z,3.60
2019-04-16T05:55:51.497Z,3.80
2019-04-16T05:58:24.173Z,4.10
2019-04-16T06:01:04.795Z,4.40
2019-04-16T06:03:37.136Z,4.50
2019-04-16T06:06:10.767Z,4.90
2019-04-16T06:08:45.153Z,5.10
2019-04-16T06:11:28.101Z,5.40
2019-04-16T06:13:53.827Z,5.50
2019-04-16T06:16:40.292Z,5.80
2019-04-16T06:19:12.566Z,6.00
2019-04-16T06:22:04.106Z,6.40
2019-04-16T06:24:40.051Z,6.80
2019-04-16T06:27:10.703Z,6.90
2019-04-16T06:30:01.327Z,7.10
2019-04-16T06:32:46.466Z,7.20
2019-04-16T06:35:43.196Z,7.60
2019-04-16T06:38:16.195Z,8.00
2019-04-16T06:41:05.782Z,8.30
2019-04-16T06:43:50.518Z,8.40
2019-04-16T06:46:24.840Z,8.70
2019-04-16T06:48:57.570Z,8.90
2019-04-16T06:51:36.149Z,9.20
2019-04-16T06:54:11.538Z,9.50
2019-04-16T06:56:59.342Z,9.80
2019-04-16T06:59:30.997Z,10.10
2019-04-16T07:02:07.721Z,10.40
2019-04-16T07:04:40.067Z,10.40
2019-04-16T07:07:39.845Z,10.60
2019-04-16T07:10:12.828Z,10.70
2019-04-16T07:12:46.826Z,11.10
2019-04-16T07:15:23.065Z,11.60
2019-04-16T07:17:54.121Z,11.90
2019-04-16T07:20:26.103Z,11.90
2019-04-16T07:23:00.235Z,11.80
2019-04-16T07:25:39.772Z,11.80
2019-04-16T07:28:25.550Z,11.90
2019-04-16T07:31:32.871Z,11.90
2019-04-16T07:34:02.658Z,12.00
2019-04-16T07:36:39.580Z,11.90
2019-04-16T07:39:29.551Z,11.80
2019-04-16T07:42:22.280Z,11.80
2019-04-16T07:45:00.627Z,11.80
2019-04-16T07:47:39.988Z,11.90
2019-04-16T07:50:18.353Z,12.20
2019-04-16T07:52:56.521Z,12.40
2019-04-16T07:55:47.616Z,12.60
2019-04-16T07:58:21.792Z,12.50
2019-04-16T08:00:52.629Z,12.50
2019-04-16T08:03:28.321Z,12.60
2019-04-16T08:06:00.716Z,12.70
2019-04-16T08:08:39.224Z,12.70
2019-04-16T08:11:11.601Z,12.70
2019-04-16T08:13:47.058Z,12.80
2019-04-16T08:16:19.104Z,13.10
2019-04-16T08:18:51.072Z,13.00
2019-04-16T08:21:26.702Z,13.00
2019-04-16T08:24:14.620Z,13.00
2019-04-16T08:26:47.658Z,13.10
2019-04-16T08:29:20.248Z,13.20
2019-04-16T08:32:02.873Z,13.30
2019-04-16T08:34:40.446Z,13.50
2019-04-16T08:37:15.518Z,13.70
2019-04-16T08:39:50.153Z,13.70
2019-04-16T08:42:29.518Z,13.80
2019-04-16T08:45:08.701Z,13.90
2019-04-16T08:47:44.837Z,13.90
2019-04-16T08:50:13.470Z,14.00
2019-04-16T08:52:45.556Z,14.00
2019-04-16T08:55:28.548Z,14.20
2019-04-16T08:57:59.004Z,14.40
2019-04-16T09:00:34.694Z,14.50
2019-04-16T09:03:10.675Z,14.90
2019-04-16T09:05:43.211Z,15.20
2019-04-16T09:10:57.038Z,15.30
2019-04-16T09:13:31.773Z,15.30
2019-04-16T09:16:04.979Z,15.30
2019-04-16T09:18:45.151Z,15.40
2019-04-16T09:21:18.964Z,15.60
2019-04-16T09:24:09.539Z,15.60
2019-04-16T09:26:47.823Z,16.10
2019-04-16T09:29:32.172Z,16.20
2019-04-16T09:32:07.398Z,15.90
2019-04-16T09:34:42.333Z,16.00
2019-04-16T09:37:20.679Z,15.90
2019-04-16T09:40:16.645Z,16.20
2019-04-16T09:42:42.302Z,16.10
2019-04-16T09:45:18.098Z,16.20
2019-04-16T09:50:23.395Z,17.20
2019-04-16T09:52:55.427Z,17.50
2019-04-16T09:55:27.612Z,17.10
2019-04-16T09:58:05.864Z,17.10
2019-04-16T10:00:41.928Z,16.80
2019-04-16T10:03:31.670Z,17.10
2019-04-16T10:06:06.187Z,17.50
2019-04-16T10:08:44.320Z,17.80
2019-04-16T10:11:13.932Z,17.90
2019-04-16T10:13:46.465Z,18.20
2019-04-16T10:16:17.821Z,18.50
2019-04-16T10:18:49.723Z,18.60
2019-04-16T10:21:22.795Z,18.90
2019-04-16T10:23:58.002Z,19.40
2019-04-16T10:26:29.341Z,19.40
2019-04-16T10:29:06.107Z,19.70
2019-04-16T10:31:37.997Z,19.50
2019-04-16T10:34:10.739Z,19.40
2019-04-16T10:36:43.321Z,19.90
2019-04-16T10:39:34.990Z,20.10
2019-04-16T10:42:07.714Z,20.40
2019-04-16T10:44:43.317Z,20.40
2019-04-16T10:47:23.377Z,20.80
2019-04-16T10:50:25.041Z,20.70
2019-04-16T10:53:17.328Z,20.50
2019-04-16T10:55:49.365Z,20.30
2019-04-16T10:58:38.881Z,20.20
2019-04-16T11:01:14.327Z,20.20
2019-04-16T11:04:04.849Z,20.00
2019-04-16T11:06:40.104Z,20.20
2019-04-16T11:09:11.776Z,20.60
2019-04-16T11:11:44.298Z,20.60
2019-04-16T11:14:17.641Z,20.70
2019-04-16T11:16:50.599Z,20.90
2019-04-16T11:19:24.443Z,21.10
2019-04-16T11:21:59.903Z,21.40
2019-04-16T11:24:33.563Z,21.00
2019-04-16T11:27:08.253Z,21.20
2019-04-16T11:29:43.213Z,21.60
2019-04-16T11:32:16.114Z,21.60
2019-04-16T11:34:48.770Z,22.00
2019-04-16T11:37:22.492Z,22.40
2019-04-16T11:39:56.804Z,22.60
2019-04-16T11:42:31.522Z,22.30
2019-04-16T11:45:05.123Z,22.30
2019-04-16T11:47:35.524Z,22.60
2019-04-16T11:50:13.887Z,22.60
2019-04-16T11:52:46.967Z,22.40
2019-04-16T11:55:19.794Z,22.30
2019-04-16T11:57:51.755Z,22.80
2019-04-16T12:00:33.974Z,22.70
2019-04-16T12:03:05.833Z,23.00
2019-04-16T12:05:40.293Z,22.70
2019-04-16T12:08:34.645Z,22.80
2019-04-16T12:11:18.372Z,23.30
2019-04-16T12:13:51.262Z,23.80
2019-04-16T12:16:26.056Z,24.10
2019-04-16T12:19:18.303Z,24.20
2019-04-16T12:21:53.761Z,24.50
2019-04-16T12:24:48.120Z,24.40
2019-04-16T12:27:40.969Z,24.70
2019-04-16T12:30:20.819Z,25.10
2019-04-16T12:33:14.579Z,24.60
2019-04-16T12:35:52.825Z,24.90
2019-04-16T12:38:38.239Z,25.20
2019-04-16T12:41:11.676Z,25.00
2019-04-16T12:43:59.012Z,24.70
2019-04-16T12:46:38.302Z,24.50
2019-04-16T12:49:12.039Z,24.70
2019-04-16T12:51:50.128Z,24.30
2019-04-16T12:54:28.471Z,24.00
2019-04-16T12:57:04.284Z,23.70
2019-04-16T12:59:35.957Z,23.70
2019-04-16T13:02:13.958Z,24.00
2019-04-16T13:04:56.270Z,24.10
2019-04-16T13:07:27.972Z,24.50
2019-04-16T13:10:08.363Z,24.20
2019-04-16T13:12:43.581Z,24.40
2019-04-16T13:15:22.699Z,24.30
2019-04-16T13:18:01.654Z,24.00
2019-04-16T13:20:48.668Z,24.00
2019-04-16T13:23:20.916Z,24.40
2019-04-16T13:26:12.834Z,24.30
2019-04-16T13:28:43.009Z,24.70
2019-04-16T13:31:13.365Z,25.20
2019-04-16T13:33:46.884Z,25.10
2019-04-16T13:36:27.875Z,24.30
2019-04-16T13:39:10.474Z,23.90
2019-04-16T13:41:42.638Z,24.00
2019-04-16T13:44:30.898Z,24.20
2019-04-16T13:47:02.944Z,24.40
2019-04-16T13:49:36.971Z,24.20
2019-04-16T13:52:08.424Z,23.80
2019-04-16T13:54:43.457Z,23.80
2019-04-16T13:57:25.180Z,24.30
2019-04-16T14:00:12.945Z,24.10
2019-04-16T14:03:14.156Z,24.20
2019-04-16T14:08:14.464Z,24.00
2019-04-16T14:10:44.616Z,24.10
2019-04-16T14:13:16.240Z,24.10
2019-04-16T14:15:46.166Z,24.20
2019-04-16T14:18:17.300Z,24.50
2019-04-16T14:20:48.579Z,24.50
2019-04-16T14:23:22.207Z,24.10
2019-04-16T14:25:53.363Z,23.20
2019-04-16T14:28:25.000Z,23.00
2019-04-16T14:30:56.441Z,22.60
2019-04-16T14:33:28.536Z,22.20
2019-04-16T14:36:02.182Z,22.20
2019-04-16T14:38:36.479Z,22.20
2019-04-16T14:41:07.301Z,22.10
2019-04-16T14:43:45.268Z,22.30
2019-04-16T14:48:49.091Z,22.50
2019-04-16T14:51:20.681Z,22.60
2019-04-16T14:53:52.536Z,22.00
2019-04-16T14:56:30.831Z,21.20
2019-04-16T14:59:08.672Z,20.90
2019-04-16T15:01:47.474Z,20.60
2019-04-16T15:04:21.917Z,20.20
2019-04-16T15:09:34.357Z,19.90
2019-04-16T15:12:16.073Z,20.10
2019-04-16T15:14:48.990Z,19.60
2019-04-16T15:17:22.814Z,19.80
2019-04-16T15:19:56.059Z,19.90
2019-04-16T15:25:19.416Z,20.00
2019-04-16T15:27:55.169Z,20.00
2019-04-16T15:33:40.983Z,19.20
2019-04-16T15:36:20.317Z,18.80
2019-04-16T15:39:02.959Z,18.70
2019-04-16T15:41:41.707Z,18.70
2019-04-16T15:44:15.859Z,18.50
2019-04-16T15:47:06.674Z,18.10
2019-04-16T15:49:38.977Z,18.00
2019-04-16T15:52:22.210Z,17.80
2019-04-16T15:55:03.325Z,17.50
2019-04-16T15:57:54.215Z,17.40
2019-04-16T16:00:45.720Z,17.40
2019-04-16T16:03:35.767Z,17.30
2019-04-16T16:06:20.430Z,17.10
2019-04-16T16:08:51.935Z,17.20
2019-04-16T16:11:44.288Z,16.90
2019-04-16T16:14:12.814Z,16.70
2019-04-16T16:16:50.713Z,16.60
2019-04-16T16:19:22.826Z,16.60
2019-04-16T16:21:59.192Z,16.60
2019-04-16T16:24:29.549Z,16.60
2019-04-16T16:26:59.888Z,16.60
2019-04-16T16:29:29.780Z,16.50
2019-04-16T16:32:01.163Z,16.30
2019-04-16T16:34:31.515Z,16.10
2019-04-16T16:37:02.636Z,15.80
2019-04-16T16:39:33.776Z,15.80
2019-04-16T16:42:06.137Z,15.70
2019-04-16T16:44:37.172Z,15.70
2019-04-16T16:47:29.899Z,15.60
2019-04-16T16:50:00.075Z,15.60
2019-04-16T16:52:35.797Z,15.50
2019-04-16T16:55:08.995Z,15.40
2019-04-16T16:57:51.535Z,15.20
2019-04-16T17:00:26.079Z,15.10
2019-04-16T17:03:08.375Z,14.90
2019-04-16T17:05:37.797Z,14.80
2019-04-16T17:08:12.436Z,14.70
2019-04-16T17:10:42.776Z,14.70
2019-04-16T17:13:16.960Z,14.60
2019-04-16T17:18:22.172Z,14.40
2019-04-16T17:20:55.069Z,14.20
2019-04-16T17:23:27.981Z,14.20
2019-04-16T17:25:59.914Z,14.00
2019-04-16T17:28:32.490Z,13.90
2019-04-16T17:31:06.624Z,13.80
2019-04-16T17:33:37.650Z,13.70
2019-04-16T17:36:08.904Z,13.70
2019-04-16T17:38:38.925Z,13.60
2019-04-16T17:41:12.050Z,13.50
2019-04-16T17:43:59.660Z,13.40
2019-04-16T17:46:28.215Z,13.30
2019-04-16T17:49:19.667Z,13.20
2019-04-16T17:51:53.989Z,13.30
2019-04-16T17:54:29.277Z,13.10
2019-04-16T17:57:11.035Z,13.00
2019-04-16T18:02:36.940Z,12.80
2019-04-16T18:05:15.608Z,12.80
2019-04-16T18:08:05.409Z,12.70
2019-04-16T18:10:53.829Z,12.60
2019-04-16T18:13:33.514Z,12.50
2019-04-16T18:16:06.516Z,12.50
2019-04-16T18:18:40.900Z,12.40
2019-04-16T18:21:23.142Z,12.30
2019-04-16T18:23:58.469Z,12.20
2019-04-16T18:29:19.292Z,12.00
2019-04-16T18:31:52.414Z,12.00
2019-04-16T18:34:26.651Z,11.90
2019-04-16T18:37:17.956Z,11.70
2019-04-16T18:39:52.096Z,11.70
2019-04-16T18:42:40.230Z,11.50
2019-04-16T18:45:33.411Z,11.40
2019-04-16T18:48:14.024Z,11.30
2019-04-16T18:50:47.433Z,11.30
2019-04-16T18:53:19.967Z,11.20
2019-04-16T18:55:51.417Z,11.00
2019-04-16T18:58:22.931Z,10.90
2019-04-16T19:01:12.750Z,10.80
2019-04-16T19:03:42.858Z,10.70
2019-04-16T19:06:14.360Z,10.60
2019-04-16T19:08:48.725Z,10.60
2019-04-16T19:11:20.534Z,10.50
2019-04-16T19:13:54.025Z,10.40
2019-04-16T19:18:57.986Z,10.20
2019-04-16T19:21:27.520Z,10.10
2019-04-16T19:23:59.181Z,10.00
2019-04-16T19:26:30.528Z,9.90
2019-04-16T19:29:05.337Z,9.90
2019-04-16T19:31:36.298Z,9.80
2019-04-16T19:34:10.249Z,9.70
2019-04-16T19:36:40.770Z,9.60
2019-04-16T19:39:15.181Z,9.60
2019-04-16T19:41:45.240Z,9.60
2019-04-16T19:44:21.325Z,9.50
2019-04-16T19:46:56.112Z,9.40
2019-04-16T19:49:28.728Z,9.40
2019-04-16T19:51:59.944Z,9.40
2019-04-16T19:54:31.838Z,9.30
2019-04-16T19:57:01.867Z,9.30
2019-04-16T19:59:33.110Z,9.20
2019-04-16T20:04:37.218Z,9.10
2019-04-16T20:07:12.627Z,9.00
2019-04-16T20:09:44.605Z,9.00
2019-04-16T20:12:19.382Z,9.00
2019-04-16T20:14:52.972Z,8.90
2019-04-16T20:17:30.370Z,8.80
2019-04-16T20:20:02.858Z,8.70
2019-04-16T20:22:38.478Z,8.60
2019-04-16T20:25:11.393Z,8.50
2019-04-16T20:27:42.811Z,8.50
2019-04-16T20:30:16.026Z,8.40
2019-04-16T20:32:47.671Z,8.40
2019-04-16T20:35:22.919Z,8.30
2019-04-16T20:37:56.838Z,8.30
2019-04-16T20:40:47.832Z,8.30
2019-04-16T20:43:20.519Z,8.20
2019-04-16T20:45:52.810Z,8.20
2019-04-16T20:48:22.898Z,8.10
2019-04-16T20:53:24.046Z,7.90
2019-04-16T20:55:58.805Z,7.90
2019-04-16T20:58:31.466Z,7.80
2019-04-16T21:01:03.865Z,7.90
2019-04-16T21:03:36.652Z,7.80
2019-04-16T21:06:09.893Z,7.80
2019-04-16T21:08:42.298Z,7.80
2019-04-16T21:11:14.705Z,7.90
2019-04-16T21:13:46.915Z,7.90
2019-04-16T21:16:17.725Z,7.90
2019-04-16T21:18:48.977Z,7.90
2019-04-16T21:21:23.373Z,7.80
2019-04-16T21:23:53.891Z,7.70
2019-04-16T21:29:06.065Z,7.70
2019-04-16T21:31:42.357Z,7.60
2019-04-16T21:34:31.738Z,7.50
2019-04-16T21:40:06.440Z,7.40
2019-04-16T21:42:38.031Z,7.30
2019-04-16T21:45:16.357Z,7.30
2019-04-16T21:47:48.262Z,7.20
2019-04-16T21:50:19.703Z,7.10
2019-04-16T21:52:54.886Z,7.10
2019-04-16T21:55:22.765Z,7.10
2019-04-16T21:57:57.684Z,7.00
2019-04-16T22:00:42.802Z,6.90
2019-04-16T22:03:17.905Z,6.90
2019-04-16T22:05:49.230Z,6.80
2019-04-16T22:08:20.547Z,6.80
2019-04-16T22:10:53.179Z,6.70
2019-04-16T22:13:25.579Z,6.60
2019-04-16T22:15:58.878Z,6.60
2019-04-16T22:18:28.731Z,6.50
2019-04-16T22:21:00.931Z,6.50
2019-04-16T22:23:34.159Z,6.40
2019-04-16T22:26:04.028Z,6.40
2019-04-16T22:28:36.632Z,6.30
2019-04-16T22:31:09.073Z,6.30
2019-04-16T22:33:41.231Z,6.20
2019-04-16T22:36:12.638Z,6.30
2019-04-16T22:38:47.255Z,6.20
2019-04-16T22:41:19.113Z,6.20
2019-04-16T22:47:04.103Z,6.10
2019-04-16T22:49:36.702Z,6.10
2019-04-16T22:52:12.245Z,6.00
2019-04-16T22:54:44.512Z,6.00
2019-04-16T22:57:15.405Z,6.00
2019-04-16T22:59:46.719Z,6.00
2019-04-16T23:02:22.129Z,6.00
2019-04-16T23:04:54.844Z,6.00
2019-04-16T23:07:25.387Z,6.00
2019-04-16T23:09:58.144Z,5.90
2019-04-16T23:12:29.333Z,5.90
2019-04-16T23:15:04.648Z,5.90
2019-04-16T23:17:37.138Z,5.90
2019-04-16T23:20:08.568Z,5.90
2019-04-16T23:22:38.675Z,6.00
2019-04-16T23:25:11.304Z,6.10
2019-04-16T23:27:42.867Z,6.00
2019-04-16T23:30:15.709Z,6.00
2019-04-16T23:32:48.745Z,6.00
2019-04-16T23:35:20.165Z,6.00
2019-04-16T23:37:58.324Z,6.00
2019-04-16T23:40:29.153Z,6.00
2019-04-16T23:43:02.036Z,6.00
2019-04-16T23:45:42.686Z,6.00
2019-04-16T23:48:17.909Z,6.00
2019-04-16T23:50:53.157Z,6.00
2019-04-16T23:53:49.829Z,6.00
2019-04-16T23:56:28.995Z,5.90
2019-04-16T23:59:06.666Z,6.00
